Main page
METAR-TAF:

METAR-TAF

Airports :

Marshall Islands International Airport

Majuro, Marshall Islands

latitude: 07-04N, longitude: 171-17E, elevation: 2 m

Current weather observation

The report was made 30 minutes ago, at 22:52 UTC
Wind 21 kt from the North/Northeast
Temperature 30°C
Humidity 75%
Pressure 1008 hPa
Visibility: 24.1 km
Scattered clouds at a height of 1400 ft
Broken clouds at a height of 5000 ft
Broken clouds at a height of 12000 ft
Overcast at a height of 30000 ft

METAR: PKMJ 212252Z COR 03021KT 15SM SCT014 BKN050 BKN120 OVC300 30/25 A2977 RMK LAST

Time: 11:22 (23:22 UTC)

Forecast

The report was made 5 hours and 55 minutes ago, at 17:27 UTC
Forecast valid from 21 at 18 UTC to 22 at 18 UTC
Wind 18 kt from the East/Northeast
Visibility: 10 km
Few clouds at a height of 1500 ft
Scattered clouds at a height of 5000 ft
Broken clouds at a height of 11000 ft
showers in vicinity

TAF: PKMJ 211727Z 2118/2218 07018KT P6SM VCSH FEW015 SCT050 BKN110

Weather observations and forecasts of more than 4000 airports (METAR and TAF reports).

The available stations are represented by yellow and red dots on the map.

Hover mouse over dot to see the name of the station.

Then click to see weather observations and forecasts.

To change the map : click on the green buttons with a black cross to zoom in, on the green button with a dash to zoom out, or on the green arrows for adjacent maps.


METAR-TAF: